SPKEA LJDI-LJPZ
Flight info
| Callsign | SPKEA |
|---|---|
| Flight time | N/A |
| Altitude | 2500 |
| Route | DCT 454137N0135800E 453621N0135544E 453324N0135244E 453325N0134500E DCT |
| Aircraft | C172/L-SBDGR/C |
Departure
| Time | 2026-05-01 15:22 |
|---|---|
| Airport | Divača Airfield (LJDI) |
Arrival
| Time | N/A |
|---|---|
| Airport | Portorož Airport (LJPZ) |
| Time | Latitude | Longitude | Altitude | Speed | Heading |
|---|---|---|---|---|---|
| 2026-05-01 15:06 | 45.68382 | 13.99763 | 1382 ft | 0 kts | 131° |
| 2026-05-01 15:15 | 45.68396 | 13.99798 | 1384 ft | 0 kts | 110° |
| 2026-05-01 15:16 | 45.68389 | 13.99865 | 1383 ft | 6 kts | 26° |
| 2026-05-01 15:16 | 45.68423 | 13.99889 | 1383 ft | 1 kts | 26° |
| 2026-05-01 15:17 | 45.68443 | 13.99955 | 1382 ft | 11 kts | 132° |
| 2026-05-01 15:18 | 45.68228 | 14.00303 | 1388 ft | 16 kts | 128° |
| 2026-05-01 15:18 | 45.68147 | 14.00436 | 1393 ft | 19 kts | 130° |
| 2026-05-01 15:19 | 45.68024 | 14.00635 | 1402 ft | 8 kts | 308° |
| 2026-05-01 15:19 | 45.68026 | 14.00631 | 1402 ft | 0 kts | 311° |
| 2026-05-01 15:20 | 45.68036 | 14.00616 | 1402 ft | 11 kts | 311° |
| 2026-05-01 15:21 | 45.68216 | 14.00320 | 1393 ft | 64 kts | 311° |
| 2026-05-01 15:21 | 45.68547 | 13.99779 | 1526 ft | 73 kts | 315° |
| 2026-05-01 15:21 | 45.68766 | 13.99423 | 1668 ft | 73 kts | 316° |
| 2026-05-01 15:21 | 45.69175 | 13.98615 | 1931 ft | 76 kts | 306° |
| 2026-05-01 15:22 | 45.69482 | 13.97144 | 2175 ft | 83 kts | 263° |
| 2026-05-01 15:22 | 45.69144 | 13.96503 | 2249 ft | 87 kts | 204° |
| 2026-05-01 15:22 | 45.68608 | 13.96147 | 2401 ft | 82 kts | 191° |
| 2026-05-01 15:23 | 45.68044 | 13.95910 | 2524 ft | 87 kts | 203° |
| 2026-05-01 15:23 | 45.67479 | 13.95542 | 2600 ft | 98 kts | 188° |
| 2026-05-01 15:23 | 45.66759 | 13.95350 | 2578 ft | 108 kts | 184° |
| 2026-05-01 15:23 | 45.66008 | 13.95079 | 2567 ft | 110 kts | 188° |
| 2026-05-01 15:24 | 45.65260 | 13.94967 | 2567 ft | 106 kts | 177° |
| 2026-05-01 15:24 | 45.64539 | 13.95025 | 2574 ft | 104 kts | 167° |
| 2026-05-01 15:24 | 45.63811 | 13.95112 | 2585 ft | 107 kts | 179° |
| 2026-05-01 15:24 | 45.63062 | 13.94828 | 2594 ft | 116 kts | 196° |
| 2026-05-01 15:25 | 45.62327 | 13.94428 | 2539 ft | 108 kts | 197° |
| 2026-05-01 15:25 | 45.61658 | 13.93957 | 2501 ft | 107 kts | 209° |
| 2026-05-01 15:25 | 45.61044 | 13.93353 | 2495 ft | 104 kts | 213° |
| 2026-05-01 15:25 | 45.60490 | 13.92782 | 2494 ft | 93 kts | 213° |
| 2026-05-01 15:26 | 45.59950 | 13.92217 | 2489 ft | 98 kts | 212° |
| 2026-05-01 15:26 | 45.59411 | 13.91574 | 2496 ft | 103 kts | 217° |
| 2026-05-01 15:26 | 45.58853 | 13.90931 | 2484 ft | 104 kts | 215° |
| 2026-05-01 15:26 | 45.58250 | 13.90339 | 2493 ft | 104 kts | 208° |
| 2026-05-01 15:27 | 45.57604 | 13.89872 | 2506 ft | 105 kts | 201° |
| 2026-05-01 15:27 | 45.56982 | 13.89292 | 2490 ft | 108 kts | 212° |
| 2026-05-01 15:27 | 45.56375 | 13.88657 | 2495 ft | 109 kts | 213° |
| 2026-05-01 15:28 | 45.55715 | 13.86962 | 2477 ft | 98 kts | 264° |
| 2026-05-01 15:28 | 45.55733 | 13.85959 | 2506 ft | 104 kts | 280° |
| 2026-05-01 15:28 | 45.55808 | 13.84912 | 2506 ft | 108 kts | 274° |
| 2026-05-01 15:29 | 45.55743 | 13.82778 | 2493 ft | 106 kts | 268° |
| 2026-05-01 15:29 | 45.55698 | 13.81730 | 2486 ft | 105 kts | 269° |
| 2026-05-01 15:29 | 45.55733 | 13.79674 | 2487 ft | 104 kts | 276° |
| 2026-05-01 15:30 | 45.55813 | 13.77609 | 2491 ft | 102 kts | 269° |
| 2026-05-01 15:31 | 45.55513 | 13.73756 | 2078 ft | 99 kts | 235° |
| 2026-05-01 15:31 | 45.54625 | 13.72280 | 1687 ft | 98 kts | 223° |
| 2026-05-01 15:32 | 45.53761 | 13.70791 | 1582 ft | 100 kts | 228° |
| 2026-05-01 15:32 | 45.52750 | 13.69340 | 1571 ft | 97 kts | 228° |
| 2026-05-01 15:33 | 45.51384 | 13.67191 | 1568 ft | 94 kts | 233° |
| 2026-05-01 15:34 | 45.50187 | 13.64910 | 1564 ft | 96 kts | 233° |